sensor_id;sensor_type;location;lat;lon;timestamp;P1;durP1;ratioP1;P2;durP2;ratioP2
45620;SDS011;31345;51.522;10.702;2024-01-16T00:02:03;4.73;;;2.47;;
45620;SDS011;31345;51.522;10.702;2024-01-16T00:04:36;4.50;;;2.50;;
45620;SDS011;31345;51.522;10.702;2024-01-16T00:07:12;4.07;;;1.90;;
45620;SDS011;31345;51.522;10.702;2024-01-16T00:09:59;5.60;;;2.70;;
45620;SDS011;31345;51.522;10.702;2024-01-16T00:12:37;7.67;;;2.60;;
45620;SDS011;31345;51.522;10.702;2024-01-16T00:15:15;6.07;;;2.37;;
45620;SDS011;31345;51.522;10.702;2024-01-16T00:17:48;3.53;;;2.20;;
45620;SDS011;31345;51.522;10.702;2024-01-16T00:20:24;2.43;;;2.07;;
45620;SDS011;31345;51.522;10.702;2024-01-16T00:22:56;5.47;;;2.37;;
45620;SDS011;31345;51.522;10.702;2024-01-16T00:25:42;4.87;;;2.80;;
45620;SDS011;31345;51.522;10.702;2024-01-16T00:28:12;4.13;;;1.92;;
45620;SDS011;31345;51.522;10.702;2024-01-16T00:30:48;7.20;;;2.50;;
45620;SDS011;31345;51.522;10.702;2024-01-16T00:33:24;3.93;;;2.20;;
45620;SDS011;31345;51.522;10.702;2024-01-16T00:36:02;5.30;;;2.00;;
45620;SDS011;31345;51.522;10.702;2024-01-16T00:38:32;4.60;;;2.10;;
45620;SDS011;31345;51.522;10.702;2024-01-16T00:41:07;6.77;;;2.70;;
45620;SDS011;31345;51.522;10.702;2024-01-16T00:43:50;4.80;;;2.10;;
45620;SDS011;31345;51.522;10.702;2024-01-16T00:46:38;4.30;;;2.03;;
45620;SDS011;31345;51.522;10.702;2024-01-16T00:49:20;5.50;;;2.10;;
45620;SDS011;31345;51.522;10.702;2024-01-16T00:51:53;5.63;;;2.10;;
45620;SDS011;31345;51.522;10.702;2024-01-16T00:54:26;6.77;;;2.13;;
45620;SDS011;31345;51.522;10.702;2024-01-16T00:57:00;3.63;;;1.77;;
45620;SDS011;31345;51.522;10.702;2024-01-16T00:59:32;3.57;;;2.17;;
45620;SDS011;31345;51.522;10.702;2024-01-16T01:02:08;3.27;;;1.80;;
45620;SDS011;31345;51.522;10.702;2024-01-16T01:04:43;2.80;;;1.90;;
45620;SDS011;31345;51.522;10.702;2024-01-16T01:07:22;4.37;;;1.90;;
45620;SDS011;31345;51.522;10.702;2024-01-16T01:10:03;2.90;;;2.20;;
45620;SDS011;31345;51.522;10.702;2024-01-16T01:12:43;6.07;;;2.27;;
45620;SDS011;31345;51.522;10.702;2024-01-16T01:15:10;3.80;;;2.03;;
45620;SDS011;31345;51.522;10.702;2024-01-16T01:17:44;4.03;;;2.17;;
45620;SDS011;31345;51.522;10.702;2024-01-16T01:20:18;5.93;;;2.70;;
45620;SDS011;31345;51.522;10.702;2024-01-16T01:22:51;5.77;;;2.50;;
45620;SDS011;31345;51.522;10.702;2024-01-16T01:25:20;6.50;;;2.83;;
45620;SDS011;31345;51.522;10.702;2024-01-16T01:27:58;8.13;;;3.63;;
45620;SDS011;31345;51.522;10.702;2024-01-16T01:30:51;6.87;;;3.00;;
45620;SDS011;31345;51.522;10.702;2024-01-16T01:33:41;8.02;;;4.07;;
45620;SDS011;31345;51.522;10.702;2024-01-16T01:36:19;11.03;;;3.33;;
45620;SDS011;31345;51.522;10.702;2024-01-16T01:38:55;7.13;;;3.10;;
45620;SDS011;31345;51.522;10.702;2024-01-16T01:41:33;7.67;;;3.20;;
45620;SDS011;31345;51.522;10.702;2024-01-16T01:44:09;6.20;;;3.40;;
45620;SDS011;31345;51.522;10.702;2024-01-16T01:46:56;7.03;;;3.13;;
45620;SDS011;31345;51.522;10.702;2024-01-16T01:49:52;8.97;;;3.33;;
45620;SDS011;31345;51.522;10.702;2024-01-16T01:52:35;5.63;;;3.23;;
45620;SDS011;31345;51.522;10.702;2024-01-16T01:55:25;5.60;;;2.97;;
45620;SDS011;31345;51.522;10.702;2024-01-16T01:57:55;7.00;;;2.90;;
45620;SDS011;31345;51.522;10.702;2024-01-16T02:00:42;6.50;;;3.60;;
45620;SDS011;31345;51.522;10.702;2024-01-16T02:03:17;8.87;;;4.37;;
45620;SDS011;31345;51.522;10.702;2024-01-16T02:05:52;5.20;;;2.77;;
45620;SDS011;31345;51.522;10.702;2024-01-16T02:08:59;8.27;;;3.10;;
45620;SDS011;31345;51.522;10.702;2024-01-16T02:11:48;11.13;;;3.10;;
45620;SDS011;31345;51.522;10.702;2024-01-16T02:14:30;6.63;;;3.00;;
45620;SDS011;31345;51.522;10.702;2024-01-16T02:17:23;6.33;;;3.17;;
45620;SDS011;31345;51.522;10.702;2024-01-16T02:20:18;4.80;;;2.83;;
45620;SDS011;31345;51.522;10.702;2024-01-16T02:23:10;7.17;;;3.07;;
45620;SDS011;31345;51.522;10.702;2024-01-16T02:25:54;9.70;;;4.23;;
45620;SDS011;31345;51.522;10.702;2024-01-16T02:28:34;8.03;;;3.70;;
45620;SDS011;31345;51.522;10.702;2024-01-16T02:31:03;8.40;;;4.47;;
45620;SDS011;31345;51.522;10.702;2024-01-16T02:33:46;6.83;;;4.07;;
45620;SDS011;31345;51.522;10.702;2024-01-16T02:36:19;6.73;;;4.30;;
45620;SDS011;31345;51.522;10.702;2024-01-16T02:38:55;6.70;;;3.70;;
45620;SDS011;31345;51.522;10.702;2024-01-16T02:41:29;7.67;;;4.43;;
45620;SDS011;31345;51.522;10.702;2024-01-16T02:44:01;9.80;;;4.17;;
45620;SDS011;31345;51.522;10.702;2024-01-16T02:46:34;8.07;;;5.33;;
45620;SDS011;31345;51.522;10.702;2024-01-16T02:49:06;8.03;;;4.50;;
45620;SDS011;31345;51.522;10.702;2024-01-16T02:51:34;7.67;;;4.70;;
45620;SDS011;31345;51.522;10.702;2024-01-16T02:54:07;10.07;;;4.77;;
45620;SDS011;31345;51.522;10.702;2024-01-16T02:56:41;7.00;;;3.90;;
45620;SDS011;31345;51.522;10.702;2024-01-16T02:59:13;11.83;;;4.60;;
45620;SDS011;31345;51.522;10.702;2024-01-16T03:01:46;7.40;;;4.03;;
45620;SDS011;31345;51.522;10.702;2024-01-16T03:04:18;10.40;;;4.33;;
45620;SDS011;31345;51.522;10.702;2024-01-16T03:06:51;9.00;;;4.30;;
45620;SDS011;31345;51.522;10.702;2024-01-16T03:09:23;6.80;;;4.07;;
45620;SDS011;31345;51.522;10.702;2024-01-16T03:11:53;9.23;;;4.47;;
45620;SDS011;31345;51.522;10.702;2024-01-16T03:14:25;6.33;;;4.50;;
45620;SDS011;31345;51.522;10.702;2024-01-16T03:16:53;8.03;;;3.97;;
45620;SDS011;31345;51.522;10.702;2024-01-16T03:19:25;8.07;;;4.30;;
45620;SDS011;31345;51.522;10.702;2024-01-16T03:21:57;7.93;;;4.20;;
45620;SDS011;31345;51.522;10.702;2024-01-16T03:24:30;10.17;;;4.70;;
45620;SDS011;31345;51.522;10.702;2024-01-16T03:27:04;6.33;;;4.63;;
45620;SDS011;31345;51.522;10.702;2024-01-16T03:29:36;7.63;;;4.50;;
45620;SDS011;31345;51.522;10.702;2024-01-16T03:32:09;9.67;;;4.10;;
45620;SDS011;31345;51.522;10.702;2024-01-16T03:34:43;8.57;;;4.80;;
45620;SDS011;31345;51.522;10.702;2024-01-16T03:37:15;8.27;;;4.40;;
45620;SDS011;31345;51.522;10.702;2024-01-16T03:39:47;8.90;;;4.53;;
45620;SDS011;31345;51.522;10.702;2024-01-16T03:42:22;7.87;;;4.63;;
45620;SDS011;31345;51.522;10.702;2024-01-16T03:44:55;9.73;;;4.93;;
45620;SDS011;31345;51.522;10.702;2024-01-16T03:47:27;9.80;;;4.80;;
45620;SDS011;31345;51.522;10.702;2024-01-16T03:50:00;8.73;;;4.43;;
45620;SDS011;31345;51.522;10.702;2024-01-16T03:52:32;8.40;;;4.30;;
45620;SDS011;31345;51.522;10.702;2024-01-16T03:55:05;7.93;;;4.17;;
45620;SDS011;31345;51.522;10.702;2024-01-16T03:57:39;7.00;;;4.00;;
45620;SDS011;31345;51.522;10.702;2024-01-16T04:00:12;10.10;;;5.27;;
45620;SDS011;31345;51.522;10.702;2024-01-16T04:02:45;9.43;;;5.53;;
45620;SDS011;31345;51.522;10.702;2024-01-16T04:05:17;7.57;;;3.93;;
45620;SDS011;31345;51.522;10.702;2024-01-16T04:07:50;10.07;;;4.23;;
45620;SDS011;31345;51.522;10.702;2024-01-16T04:10:23;7.47;;;3.77;;
45620;SDS011;31345;51.522;10.702;2024-01-16T04:12:58;8.67;;;4.13;;
45620;SDS011;31345;51.522;10.702;2024-01-16T04:15:27;9.77;;;3.53;;
45620;SDS011;31345;51.522;10.702;2024-01-16T04:17:59;6.70;;;4.20;;
45620;SDS011;31345;51.522;10.702;2024-01-16T04:20:32;7.70;;;4.13;;
45620;SDS011;31345;51.522;10.702;2024-01-16T04:23:04;9.90;;;4.40;;
45620;SDS011;31345;51.522;10.702;2024-01-16T04:25:37;8.87;;;4.63;;
45620;SDS011;31345;51.522;10.702;2024-01-16T04:28:12;8.13;;;3.87;;
45620;SDS011;31345;51.522;10.702;2024-01-16T04:30:44;7.80;;;3.90;;
45620;SDS011;31345;51.522;10.702;2024-01-16T04:33:16;8.67;;;3.63;;
45620;SDS011;31345;51.522;10.702;2024-01-16T04:35:49;9.37;;;4.13;;
45620;SDS011;31345;51.522;10.702;2024-01-16T04:38:21;10.03;;;3.80;;
45620;SDS011;31345;51.522;10.702;2024-01-16T04:40:54;9.90;;;3.80;;
45620;SDS011;31345;51.522;10.702;2024-01-16T04:43:28;8.40;;;4.00;;
45620;SDS011;31345;51.522;10.702;2024-01-16T04:46:01;10.87;;;5.43;;
45620;SDS011;31345;51.522;10.702;2024-01-16T04:48:30;6.83;;;4.20;;
45620;SDS011;31345;51.522;10.702;2024-01-16T04:51:02;7.77;;;4.00;;
45620;SDS011;31345;51.522;10.702;2024-01-16T04:53:35;10.70;;;4.83;;
45620;SDS011;31345;51.522;10.702;2024-01-16T04:56:07;12.43;;;4.13;;
45620;SDS011;31345;51.522;10.702;2024-01-16T04:58:41;13.53;;;5.10;;
45620;SDS011;31345;51.522;10.702;2024-01-16T05:01:08;8.20;;;4.70;;
45620;SDS011;31345;51.522;10.702;2024-01-16T05:03:41;8.77;;;4.20;;
45620;SDS011;31345;51.522;10.702;2024-01-16T05:06:13;9.93;;;4.93;;
45620;SDS011;31345;51.522;10.702;2024-01-16T05:08:46;9.00;;;4.47;;
45620;SDS011;31345;51.522;10.702;2024-01-16T05:11:19;13.30;;;4.70;;
45620;SDS011;31345;51.522;10.702;2024-01-16T05:13:53;10.63;;;4.73;;
45620;SDS011;31345;51.522;10.702;2024-01-16T05:16:28;10.70;;;4.63;;
45620;SDS011;31345;51.522;10.702;2024-01-16T05:19:03;10.03;;;5.30;;
45620;SDS011;31345;51.522;10.702;2024-01-16T05:21:35;11.20;;;5.13;;
45620;SDS011;31345;51.522;10.702;2024-01-16T05:24:08;8.03;;;4.97;;
45620;SDS011;31345;51.522;10.702;2024-01-16T05:26:40;10.77;;;5.27;;
45620;SDS011;31345;51.522;10.702;2024-01-16T05:29:14;13.33;;;5.20;;
45620;SDS011;31345;51.522;10.702;2024-01-16T05:31:46;11.17;;;5.50;;
45620;SDS011;31345;51.522;10.702;2024-01-16T05:34:19;9.07;;;5.23;;
45620;SDS011;31345;51.522;10.702;2024-01-16T05:36:51;9.50;;;5.53;;
45620;SDS011;31345;51.522;10.702;2024-01-16T05:39:24;11.10;;;5.80;;
45620;SDS011;31345;51.522;10.702;2024-01-16T05:41:56;11.13;;;6.07;;
45620;SDS011;31345;51.522;10.702;2024-01-16T05:44:31;12.57;;;6.50;;
45620;SDS011;31345;51.522;10.702;2024-01-16T05:47:03;14.60;;;6.30;;
45620;SDS011;31345;51.522;10.702;2024-01-16T05:49:31;12.60;;;5.97;;
45620;SDS011;31345;51.522;10.702;2024-01-16T05:52:04;16.13;;;6.53;;
45620;SDS011;31345;51.522;10.702;2024-01-16T05:54:37;11.40;;;5.90;;
45620;SDS011;31345;51.522;10.702;2024-01-16T05:57:09;12.27;;;5.83;;
45620;SDS011;31345;51.522;10.702;2024-01-16T05:59:43;11.43;;;6.53;;
45620;SDS011;31345;51.522;10.702;2024-01-16T06:02:15;16.00;;;6.83;;
45620;SDS011;31345;51.522;10.702;2024-01-16T06:04:43;13.17;;;6.10;;
45620;SDS011;31345;51.522;10.702;2024-01-16T06:07:15;15.10;;;7.37;;
45620;SDS011;31345;51.522;10.702;2024-01-16T06:09:47;12.87;;;6.10;;
45620;SDS011;31345;51.522;10.702;2024-01-16T06:12:20;15.27;;;7.00;;
45620;SDS011;31345;51.522;10.702;2024-01-16T06:14:54;12.33;;;6.23;;
45620;SDS011;31345;51.522;10.702;2024-01-16T06:17:26;15.87;;;6.63;;
45620;SDS011;31345;51.522;10.702;2024-01-16T06:19:59;12.30;;;6.90;;
45620;SDS011;31345;51.522;10.702;2024-01-16T06:22:31;15.60;;;7.30;;
45620;SDS011;31345;51.522;10.702;2024-01-16T06:25:04;12.93;;;6.27;;
45620;SDS011;31345;51.522;10.702;2024-01-16T06:27:37;13.30;;;6.57;;
45620;SDS011;31345;51.522;10.702;2024-01-16T06:30:11;14.77;;;6.27;;
45620;SDS011;31345;51.522;10.702;2024-01-16T06:32:44;16.73;;;6.00;;
45620;SDS011;31345;51.522;10.702;2024-01-16T06:35:16;13.67;;;5.63;;
45620;SDS011;31345;51.522;10.702;2024-01-16T06:37:49;11.83;;;5.87;;
45620;SDS011;31345;51.522;10.702;2024-01-16T06:40:21;14.47;;;6.33;;
45620;SDS011;31345;51.522;10.702;2024-01-16T06:42:54;11.57;;;5.87;;
45620;SDS011;31345;51.522;10.702;2024-01-16T06:45:27;10.97;;;5.17;;
45620;SDS011;31345;51.522;10.702;2024-01-16T06:48:00;11.73;;;6.03;;
45620;SDS011;31345;51.522;10.702;2024-01-16T06:50:32;12.83;;;6.10;;
45620;SDS011;31345;51.522;10.702;2024-01-16T06:53:05;10.70;;;5.43;;
45620;SDS011;31345;51.522;10.702;2024-01-16T06:55:37;15.10;;;5.93;;
45620;SDS011;31345;51.522;10.702;2024-01-16T06:58:10;12.87;;;5.30;;
45620;SDS011;31345;51.522;10.702;2024-01-16T07:00:44;8.57;;;5.30;;
45620;SDS011;31345;51.522;10.702;2024-01-16T07:03:17;12.83;;;6.17;;
45620;SDS011;31345;51.522;10.702;2024-01-16T07:05:50;13.40;;;5.70;;
45620;SDS011;31345;51.522;10.702;2024-01-16T07:08:22;12.93;;;6.67;;
45620;SDS011;31345;51.522;10.702;2024-01-16T07:10:50;11.37;;;5.93;;
45620;SDS011;31345;51.522;10.702;2024-01-16T07:13:22;10.47;;;4.97;;
45620;SDS011;31345;51.522;10.702;2024-01-16T07:15:51;14.73;;;5.77;;
45620;SDS011;31345;51.522;10.702;2024-01-16T07:18:23;12.63;;;5.37;;
45620;SDS011;31345;51.522;10.702;2024-01-16T07:20:56;9.77;;;5.23;;
45620;SDS011;31345;51.522;10.702;2024-01-16T07:23:28;11.47;;;5.57;;
45620;SDS011;31345;51.522;10.702;2024-01-16T07:26:01;9.77;;;5.20;;
45620;SDS011;31345;51.522;10.702;2024-01-16T07:28:35;12.77;;;5.57;;
45620;SDS011;31345;51.522;10.702;2024-01-16T07:31:03;10.00;;;5.37;;
45620;SDS011;31345;51.522;10.702;2024-01-16T07:33:31;10.73;;;5.67;;
45620;SDS011;31345;51.522;10.702;2024-01-16T07:36:03;12.00;;;5.87;;
45620;SDS011;31345;51.522;10.702;2024-01-16T07:38:36;12.17;;;5.37;;
45620;SDS011;31345;51.522;10.702;2024-01-16T07:41:09;11.90;;;5.30;;
45620;SDS011;31345;51.522;10.702;2024-01-16T07:43:41;11.83;;;5.47;;
45620;SDS011;31345;51.522;10.702;2024-01-16T07:46:15;15.13;;;5.40;;
45620;SDS011;31345;51.522;10.702;2024-01-16T07:48:48;9.30;;;5.37;;
45620;SDS011;31345;51.522;10.702;2024-01-16T07:51:21;12.13;;;5.60;;
45620;SDS011;31345;51.522;10.702;2024-01-16T07:53:59;13.00;;;5.83;;
45620;SDS011;31345;51.522;10.702;2024-01-16T07:56:37;13.03;;;5.50;;
45620;SDS011;31345;51.522;10.702;2024-01-16T07:59:10;9.73;;;5.70;;
45620;SDS011;31345;51.522;10.702;2024-01-16T08:01:44;14.53;;;5.13;;
45620;SDS011;31345;51.522;10.702;2024-01-16T08:04:17;10.87;;;5.27;;
45620;SDS011;31345;51.522;10.702;2024-01-16T08:06:49;11.83;;;4.83;;
45620;SDS011;31345;51.522;10.702;2024-01-16T08:09:22;9.97;;;5.00;;
45620;SDS011;31345;51.522;10.702;2024-01-16T08:11:54;13.33;;;5.10;;
45620;SDS011;31345;51.522;10.702;2024-01-16T08:14:26;8.77;;;4.47;;
45620;SDS011;31345;51.522;10.702;2024-01-16T08:17:01;11.57;;;5.23;;
45620;SDS011;31345;51.522;10.702;2024-01-16T08:19:33;16.57;;;6.70;;
45620;SDS011;31345;51.522;10.702;2024-01-16T08:22:06;10.37;;;5.13;;
45620;SDS011;31345;51.522;10.702;2024-01-16T08:24:39;12.20;;;5.63;;
45620;SDS011;31345;51.522;10.702;2024-01-16T08:27:11;13.17;;;5.37;;
45620;SDS011;31345;51.522;10.702;2024-01-16T08:29:45;15.27;;;7.07;;
45620;SDS011;31345;51.522;10.702;2024-01-16T08:32:19;34.63;;;14.47;;
45620;SDS011;31345;51.522;10.702;2024-01-16T08:34:52;24.60;;;13.00;;
45620;SDS011;31345;51.522;10.702;2024-01-16T08:37:24;22.63;;;11.83;;
45620;SDS011;31345;51.522;10.702;2024-01-16T08:39:52;17.47;;;9.10;;
45620;SDS011;31345;51.522;10.702;2024-01-16T08:42:24;22.73;;;10.87;;
45620;SDS011;31345;51.522;10.702;2024-01-16T08:44:57;13.00;;;7.50;;
45620;SDS011;31345;51.522;10.702;2024-01-16T08:47:31;17.60;;;8.37;;
45620;SDS011;31345;51.522;10.702;2024-01-16T08:50:04;21.07;;;9.50;;
45620;SDS011;31345;51.522;10.702;2024-01-16T08:52:37;23.33;;;13.47;;
45620;SDS011;31345;51.522;10.702;2024-01-16T08:55:10;21.17;;;8.80;;
45620;SDS011;31345;51.522;10.702;2024-01-16T08:57:42;19.80;;;8.63;;
45620;SDS011;31345;51.522;10.702;2024-01-16T09:00:15;22.80;;;12.13;;
45620;SDS011;31345;51.522;10.702;2024-01-16T09:02:57;29.90;;;15.82;;
45620;SDS011;31345;51.522;10.702;2024-01-16T09:05:29;21.53;;;11.37;;
45620;SDS011;31345;51.522;10.702;2024-01-16T09:08:02;32.03;;;16.23;;
45620;SDS011;31345;51.522;10.702;2024-01-16T09:10:35;30.87;;;15.77;;
45620;SDS011;31345;51.522;10.702;2024-01-16T09:13:02;20.23;;;11.20;;
45620;SDS011;31345;51.522;10.702;2024-01-16T09:15:35;14.87;;;7.70;;
45620;SDS011;31345;51.522;10.702;2024-01-16T09:18:11;23.33;;;12.20;;
45620;SDS011;31345;51.522;10.702;2024-01-16T09:20:43;27.33;;;13.80;;
45620;SDS011;31345;51.522;10.702;2024-01-16T09:23:16;18.50;;;9.30;;
45620;SDS011;31345;51.522;10.702;2024-01-16T09:25:43;22.80;;;11.07;;
45620;SDS011;31345;51.522;10.702;2024-01-16T09:28:16;24.90;;;11.60;;
45620;SDS011;31345;51.522;10.702;2024-01-16T09:30:48;15.13;;;7.40;;
45620;SDS011;31345;51.522;10.702;2024-01-16T09:33:22;15.70;;;6.60;;
45620;SDS011;31345;51.522;10.702;2024-01-16T09:35:56;21.63;;;8.73;;
45620;SDS011;31345;51.522;10.702;2024-01-16T09:38:28;27.63;;;14.27;;
45620;SDS011;31345;51.522;10.702;2024-01-16T09:41:02;26.10;;;13.37;;
45620;SDS011;31345;51.522;10.702;2024-01-16T09:43:34;35.10;;;17.27;;
45620;SDS011;31345;51.522;10.702;2024-01-16T09:46:06;17.83;;;8.30;;
45620;SDS011;31345;51.522;10.702;2024-01-16T09:48:43;15.03;;;6.30;;
45620;SDS011;31345;51.522;10.702;2024-01-16T09:51:16;15.30;;;7.27;;
45620;SDS011;31345;51.522;10.702;2024-01-16T09:53:49;22.50;;;13.00;;
45620;SDS011;31345;51.522;10.702;2024-01-16T09:56:22;11.70;;;6.47;;
45620;SDS011;31345;51.522;10.702;2024-01-16T09:58:56;10.73;;;6.30;;
45620;SDS011;31345;51.522;10.702;2024-01-16T10:01:33;13.40;;;7.37;;
45620;SDS011;31345;51.522;10.702;2024-01-16T10:04:07;13.40;;;6.40;;
45620;SDS011;31345;51.522;10.702;2024-01-16T10:06:34;11.23;;;4.47;;
45620;SDS011;31345;51.522;10.702;2024-01-16T10:09:05;7.65;;;4.13;;
45620;SDS011;31345;51.522;10.702;2024-01-16T10:11:38;8.30;;;4.53;;
45620;SDS011;31345;51.522;10.702;2024-01-16T10:14:11;9.97;;;4.70;;
45620;SDS011;31345;51.522;10.702;2024-01-16T10:19:47;6.50;;;3.70;;
45620;SDS011;31345;51.522;10.702;2024-01-16T10:22:20;7.67;;;3.70;;
45620;SDS011;31345;51.522;10.702;2024-01-16T10:25:04;12.03;;;4.87;;
45620;SDS011;31345;51.522;10.702;2024-01-16T10:27:38;9.50;;;4.10;;
45620;SDS011;31345;51.522;10.702;2024-01-16T10:30:12;11.97;;;4.17;;
45620;SDS011;31345;51.522;10.702;2024-01-16T10:32:40;9.97;;;4.30;;
45620;SDS011;31345;51.522;10.702;2024-01-16T10:35:14;11.53;;;4.10;;
45620;SDS011;31345;51.522;10.702;2024-01-16T10:37:47;8.80;;;4.07;;
45620;SDS011;31345;51.522;10.702;2024-01-16T10:40:21;8.73;;;4.07;;
45620;SDS011;31345;51.522;10.702;2024-01-16T10:42:57;6.60;;;3.90;;
45620;SDS011;31345;51.522;10.702;2024-01-16T10:45:30;8.70;;;4.67;;
45620;SDS011;31345;51.522;10.702;2024-01-16T10:48:01;9.93;;;4.40;;
45620;SDS011;31345;51.522;10.702;2024-01-16T10:50:37;8.43;;;4.80;;
45620;SDS011;31345;51.522;10.702;2024-01-16T10:53:11;10.27;;;5.03;;
45620;SDS011;31345;51.522;10.702;2024-01-16T10:55:49;10.07;;;4.97;;
45620;SDS011;31345;51.522;10.702;2024-01-16T10:58:23;10.03;;;4.70;;
45620;SDS011;31345;51.522;10.702;2024-01-16T11:00:56;8.73;;;4.13;;
45620;SDS011;31345;51.522;10.702;2024-01-16T11:03:25;8.47;;;4.40;;
45620;SDS011;31345;51.522;10.702;2024-01-16T11:06:08;10.20;;;4.17;;
45620;SDS011;31345;51.522;10.702;2024-01-16T11:08:42;8.23;;;4.13;;
45620;SDS011;31345;51.522;10.702;2024-01-16T11:11:17;16.17;;;6.83;;
45620;SDS011;31345;51.522;10.702;2024-01-16T11:13:50;9.80;;;5.17;;
45620;SDS011;31345;51.522;10.702;2024-01-16T11:16:23;28.03;;;13.63;;
45620;SDS011;31345;51.522;10.702;2024-01-16T11:18:56;18.67;;;9.77;;
45620;SDS011;31345;51.522;10.702;2024-01-16T11:21:30;18.57;;;10.40;;
45620;SDS011;31345;51.522;10.702;2024-01-16T11:24:03;18.30;;;10.60;;
45620;SDS011;31345;51.522;10.702;2024-01-16T11:26:39;25.80;;;12.07;;
45620;SDS011;31345;51.522;10.702;2024-01-16T11:32:07;13.80;;;7.10;;
45620;SDS011;31345;51.522;10.702;2024-01-16T11:34:52;14.07;;;7.07;;
45620;SDS011;31345;51.522;10.702;2024-01-16T11:37:28;23.40;;;14.50;;
45620;SDS011;31345;51.522;10.702;2024-01-16T11:40:22;16.30;;;9.60;;
45620;SDS011;31345;51.522;10.702;2024-01-16T11:42:57;61.30;;;32.00;;
45620;SDS011;31345;51.522;10.702;2024-01-16T11:45:48;30.47;;;17.83;;
45620;SDS011;31345;51.522;10.702;2024-01-16T11:48:24;23.30;;;15.33;;
45620;SDS011;31345;51.522;10.702;2024-01-16T11:50:57;19.60;;;12.40;;
45620;SDS011;31345;51.522;10.702;2024-01-16T11:53:37;21.60;;;11.47;;
45620;SDS011;31345;51.522;10.702;2024-01-16T11:58:48;18.77;;;9.77;;
45620;SDS011;31345;51.522;10.702;2024-01-16T12:01:25;18.40;;;10.77;;
45620;SDS011;31345;51.522;10.702;2024-01-16T12:04:03;25.60;;;12.83;;
45620;SDS011;31345;51.522;10.702;2024-01-16T12:06:30;17.53;;;9.40;;
45620;SDS011;31345;51.522;10.702;2024-01-16T12:09:12;12.83;;;7.67;;
45620;SDS011;31345;51.522;10.702;2024-01-16T12:11:39;24.77;;;13.10;;
45620;SDS011;31345;51.522;10.702;2024-01-16T12:14:09;19.60;;;11.30;;
45620;SDS011;31345;51.522;10.702;2024-01-16T12:16:41;16.87;;;8.57;;
45620;SDS011;31345;51.522;10.702;2024-01-16T12:19:09;15.40;;;8.73;;
45620;SDS011;31345;51.522;10.702;2024-01-16T12:21:44;15.37;;;9.87;;
45620;SDS011;31345;51.522;10.702;2024-01-16T12:24:15;8.67;;;5.87;;
45620;SDS011;31345;51.522;10.702;2024-01-16T12:26:49;10.63;;;5.50;;
45620;SDS011;31345;51.522;10.702;2024-01-16T12:29:23;9.90;;;4.97;;
45620;SDS011;31345;51.522;10.702;2024-01-16T12:32:04;11.00;;;5.37;;
45620;SDS011;31345;51.522;10.702;2024-01-16T12:37:12;10.10;;;4.97;;
45620;SDS011;31345;51.522;10.702;2024-01-16T12:39:46;6.53;;;4.87;;
45620;SDS011;31345;51.522;10.702;2024-01-16T12:42:18;13.13;;;6.10;;
45620;SDS011;31345;51.522;10.702;2024-01-16T12:44:46;11.67;;;5.70;;
45620;SDS011;31345;51.522;10.702;2024-01-16T12:47:15;10.40;;;6.00;;
45620;SDS011;31345;51.522;10.702;2024-01-16T12:49:50;14.80;;;7.63;;
45620;SDS011;31345;51.522;10.702;2024-01-16T12:52:22;9.10;;;6.10;;
45620;SDS011;31345;51.522;10.702;2024-01-16T12:55:01;10.63;;;5.80;;
45620;SDS011;31345;51.522;10.702;2024-01-16T12:57:35;13.17;;;7.00;;
45620;SDS011;31345;51.522;10.702;2024-01-16T13:00:20;8.77;;;4.33;;
45620;SDS011;31345;51.522;10.702;2024-01-16T13:02:55;10.13;;;5.53;;
45620;SDS011;31345;51.522;10.702;2024-01-16T13:05:24;11.17;;;4.80;;
45620;SDS011;31345;51.522;10.702;2024-01-16T13:08:00;11.07;;;5.90;;
45620;SDS011;31345;51.522;10.702;2024-01-16T13:10:35;10.97;;;5.90;;
45620;SDS011;31345;51.522;10.702;2024-01-16T13:13:16;12.63;;;7.63;;
45620;SDS011;31345;51.522;10.702;2024-01-16T13:15:50;16.63;;;9.47;;
45620;SDS011;31345;51.522;10.702;2024-01-16T13:18:23;16.00;;;8.83;;
45620;SDS011;31345;51.522;10.702;2024-01-16T13:20:53;13.43;;;8.13;;
45620;SDS011;31345;51.522;10.702;2024-01-16T13:23:29;11.60;;;6.53;;
45620;SDS011;31345;51.522;10.702;2024-01-16T13:26:05;12.00;;;7.00;;
45620;SDS011;31345;51.522;10.702;2024-01-16T13:31:07;9.90;;;5.03;;
45620;SDS011;31345;51.522;10.702;2024-01-16T13:33:43;12.93;;;5.37;;
45620;SDS011;31345;51.522;10.702;2024-01-16T13:36:18;11.23;;;6.23;;
45620;SDS011;31345;51.522;10.702;2024-01-16T13:38:48;10.93;;;6.17;;
45620;SDS011;31345;51.522;10.702;2024-01-16T13:41:17;16.83;;;6.20;;
45620;SDS011;31345;51.522;10.702;2024-01-16T13:43:45;11.73;;;6.10;;
45620;SDS011;31345;51.522;10.702;2024-01-16T13:46:15;11.70;;;5.93;;
45620;SDS011;31345;51.522;10.702;2024-01-16T13:48:43;19.40;;;10.23;;
45620;SDS011;31345;51.522;10.702;2024-01-16T13:51:16;13.67;;;7.23;;
45620;SDS011;31345;51.522;10.702;2024-01-16T13:53:48;13.47;;;7.73;;
45620;SDS011;31345;51.522;10.702;2024-01-16T13:56:22;19.87;;;11.10;;
45620;SDS011;31345;51.522;10.702;2024-01-16T13:58:55;24.10;;;11.90;;
45620;SDS011;31345;51.522;10.702;2024-01-16T14:01:27;45.00;;;23.47;;
45620;SDS011;31345;51.522;10.702;2024-01-16T14:03:55;41.83;;;19.43;;
45620;SDS011;31345;51.522;10.702;2024-01-16T14:06:27;26.23;;;14.93;;
45620;SDS011;31345;51.522;10.702;2024-01-16T14:08:55;30.53;;;14.63;;
45620;SDS011;31345;51.522;10.702;2024-01-16T14:11:29;16.60;;;10.30;;
45620;SDS011;31345;51.522;10.702;2024-01-16T14:14:02;10.73;;;5.10;;
45620;SDS011;31345;51.522;10.702;2024-01-16T14:16:36;9.70;;;3.20;;
45620;SDS011;31345;51.522;10.702;2024-01-16T14:19:08;7.23;;;3.70;;
45620;SDS011;31345;51.522;10.702;2024-01-16T14:21:41;8.53;;;3.27;;
45620;SDS011;31345;51.522;10.702;2024-01-16T14:24:13;6.73;;;3.30;;
45620;SDS011;31345;51.522;10.702;2024-01-16T14:26:48;8.27;;;3.43;;
45620;SDS011;31345;51.522;10.702;2024-01-16T14:29:20;7.83;;;3.00;;
45620;SDS011;31345;51.522;10.702;2024-01-16T14:31:54;7.70;;;3.80;;
45620;SDS011;31345;51.522;10.702;2024-01-16T14:34:27;7.53;;;3.60;;
45620;SDS011;31345;51.522;10.702;2024-01-16T14:36:59;5.77;;;3.23;;
45620;SDS011;31345;51.522;10.702;2024-01-16T14:39:32;8.07;;;3.33;;
45620;SDS011;31345;51.522;10.702;2024-01-16T14:42:08;6.77;;;3.30;;
45620;SDS011;31345;51.522;10.702;2024-01-16T14:44:40;8.00;;;3.40;;
45620;SDS011;31345;51.522;10.702;2024-01-16T14:47:13;10.63;;;3.60;;
45620;SDS011;31345;51.522;10.702;2024-01-16T14:49:45;9.63;;;3.80;;
45620;SDS011;31345;51.522;10.702;2024-01-16T14:52:19;9.97;;;4.40;;
45620;SDS011;31345;51.522;10.702;2024-01-16T14:54:51;9.80;;;4.77;;
45620;SDS011;31345;51.522;10.702;2024-01-16T14:57:25;6.83;;;3.40;;
45620;SDS011;31345;51.522;10.702;2024-01-16T14:59:57;6.93;;;3.40;;
45620;SDS011;31345;51.522;10.702;2024-01-16T15:02:25;6.13;;;3.90;;
45620;SDS011;31345;51.522;10.702;2024-01-16T15:04:57;8.03;;;4.10;;
45620;SDS011;31345;51.522;10.702;2024-01-16T15:07:30;7.67;;;4.33;;
45620;SDS011;31345;51.522;10.702;2024-01-16T15:10:04;10.60;;;4.23;;
45620;SDS011;31345;51.522;10.702;2024-01-16T15:12:41;7.93;;;4.17;;
45620;SDS011;31345;51.522;10.702;2024-01-16T15:15:14;9.50;;;3.83;;
45620;SDS011;31345;51.522;10.702;2024-01-16T15:17:47;10.57;;;4.00;;
45620;SDS011;31345;51.522;10.702;2024-01-16T15:20:23;8.17;;;4.40;;